Terminal Aerodrome Forecast
Issued by NWS

Home | Current Version | Previous Version | Graphics & Text | Print | Product List | Glossary On
Versions: 1 2 3 4 5 6 7 8 9 10 11 12 13 14 15 16 17 18 19 20 21 22
000
FTUS43 KICT 261135
TAFRSL
TAF
KRSL 261135Z 2612/2712 07007KT P6SM SCT008 BKN035
     FM261600 17015G22KT P6SM SCT015 SCT150
     FM262000 15018G26KT P6SM VCTS BKN040CB
     FM262300 15016G24KT P6SM -SHRA VCTS BKN040CB
     FM270600 16012KT P6SM VCSH BKN080=

USA.gov is the U.S. government's official web portal to all federal, state and local government web resources and services.